Portada
METAR-TAF:

METAR-TAF

Aeropuertos :

Aeropuerto Internacional Houari Boumedienne

Argel, Argelia

latitud: 36-43N, longitud: 003-15E, altitud: 25 m

Observación

El informe se hizo hace 26 minutos, a las 18:30 UTC
Viento calma
Temperatura 19°C
Humedad 68%
Presión 1025 hPa
Visibilidad 10 km o más
sin nubes por debajo de 1500 m y sin presencia de cumulonimbus.

METAR: DAAG 191830Z 00000KT CAVOK 19/13 Q1025

Hora: 19:56 (18:56 UTC)

Pronóstico

El informe se hizo hace 1 hora y 56 minutos, a las 17:00 UTC
Pronóstico válido del 19 a las 18 UTC al 20 a las 18 UTC
Viento 10 kt del este-noreste
Visibilidad 10 km o más
sin nubes por debajo de 1500 m y sin presencia de cumulonimbus.
Evolucionando progresivamente
del 19 a las 19 UTC al 19 a las 21 UTC
Viento 2 kt con dirección variable
Evolucionando progresivamente
del 20 a las 08 UTC al 20 a las 12 UTC
Viento 10 kt del este-sureste

TAF: DAAG 191700Z 1918/2018 06010KT CAVOK BECMG 1919/1921 VRB02KT BECMG 2008/2012 12010KT

Observaciones y pronósticos meteorológicos de más de 4000 aeropuertos (mensajes METAR y TAF).

Los puntos amarillos y rojos representan las estaciones disponibles.

Ponga el ratón en el punto deseado para ver el nombre de la estación.

Haga clic para ver las observaciones y los pronósticos meteorológicos.

Para cambiar el mapa : haga clic en los botones verdes con una cruz de color negro para hacer un zoom, en el botón verde con un guión para alejar o en las flechas verdes para mapas adyacentes.


METAR-TAF: